Time;durP1;ratioP1;P1;durP2;ratioP2;P2;SDS_P1;SDS_P2;PMS_P1;PMS_P2;Temp;Humidity;BMP_temperature;BMP_pressure;BME280_temperature;BME280_humidity;BME280_pressure;Samples;Min_cycle;Max_cycle;Signal;HPM_P1;HPM_P2
2021/08/02 00:02:41;;;;;;;3.83;0.88;;;;;;;;;;5070594;28;20036;-78
2021/08/02 00:05:45;;;;;;;2.55;0.60;;;;;;;;;;5072498;28;20385;-76
2021/08/02 00:08:55;;;;;;;2.65;0.85;;;;;;;;;;5075310;28;20044;-75
2021/08/02 00:12:00;;;;;;;1.00;0.55;;;;;;;;;;5075353;28;20033;-74
2021/08/02 00:15:03;;;;;;;3.60;0.63;;;;;;;;;;5074866;28;20040;-74
2021/08/02 00:18:08;;;;;;;1.20;0.73;;;;;;;;;;5074615;28;20040;-74
2021/08/02 00:21:11;;;;;;;2.08;0.63;;;;;;;;;;5075516;28;20041;-73
2021/08/02 00:24:15;;;;;;;5.35;0.63;;;;;;;;;;5075205;28;20040;-74
2021/08/02 00:27:18;;;;;;;1.00;0.55;;;;;;;;;;5074191;28;20037;-74
2021/08/02 00:30:24;;;;;;;1.05;0.20;;;;;;;;;;5075048;28;20044;-76
2021/08/02 00:33:27;;;;;;;0.65;0.30;;;;;;;;;;5073789;28;20048;-76
2021/08/02 00:36:38;;;;;;;0.73;0.40;;;;;;;;;;5074182;28;20377;-76
2021/08/02 00:39:50;;;;;;;6.40;0.57;;;;;;;;;;5074295;28;20484;-76
2021/08/02 00:42:57;;;;;;;0.20;0.20;;;;;;;;;;5074696;28;20036;-76
2021/08/02 00:46:01;;;;;;;0.73;0.20;;;;;;;;;;5074495;28;20044;-76
2021/08/02 00:49:06;;;;;;;1.27;0.20;;;;;;;;;;5074767;28;20119;-76
2021/08/02 00:52:09;;;;;;;0.40;0.40;;;;;;;;;;5075052;28;20044;-76
2021/08/02 00:55:12;;;;;;;2.85;0.50;;;;;;;;;;5074685;28;20452;-76
2021/08/02 00:58:18;;;;;;;3.03;0.75;;;;;;;;;;5074663;28;20477;-76
2021/08/02 01:01:22;;;;;;;1.17;0.30;;;;;;;;;;5074049;28;20041;-76
2021/08/02 01:04:26;;;;;;;1.92;0.65;;;;;;;;;;5073100;28;20374;-76
2021/08/02 01:07:31;;;;;;;3.75;0.52;;;;;;;;;;5072971;28;20048;-76
2021/08/02 01:10:35;;;;;;;1.58;0.60;;;;;;;;;;5072657;28;20045;-76
2021/08/02 01:13:39;;;;;;;0.25;0.25;;;;;;;;;;5072875;28;20032;-75
2021/08/02 01:16:44;;;;;;;5.57;0.93;;;;;;;;;;5072110;28;20040;-76
2021/08/02 01:19:47;;;;;;;2.55;0.70;;;;;;;;;;5073269;28;20036;-76
2021/08/02 01:22:51;;;;;;;1.63;0.40;;;;;;;;;;5073220;28;20040;-76
2021/08/02 01:25:55;;;;;;;1.30;0.57;;;;;;;;;;5072694;28;20040;-76
2021/08/02 01:29:17;;;;;;;2.40;0.60;;;;;;;;;;5072722;28;20418;-76
2021/08/02 01:32:20;;;;;;;0.70;0.60;;;;;;;;;;5071898;28;20049;-76
2021/08/02 01:35:24;;;;;;;0.43;0.43;;;;;;;;;;5072179;28;20036;-76
2021/08/02 01:38:27;;;;;;;12.35;1.20;;;;;;;;;;5072330;28;20044;-75
2021/08/02 01:41:30;;;;;;;1.55;0.73;;;;;;;;;;5072276;28;20036;-76
2021/08/02 01:44:36;;;;;;;1.85;0.95;;;;;;;;;;5072591;28;20476;-76
2021/08/02 01:47:58;;;;;;;1.55;0.80;;;;;;;;;;5072155;28;20045;-76
2021/08/02 01:51:09;;;;;;;1.05;0.73;;;;;;;;;;5072901;28;20045;-76
2021/08/02 01:54:12;;;;;;;3.03;0.52;;;;;;;;;;5072791;28;20040;-76
2021/08/02 01:57:22;;;;;;;1.58;0.50;;;;;;;;;;5072653;28;20037;-76
2021/08/02 02:00:27;;;;;;;4.23;0.50;;;;;;;;;;5072289;28;20382;-76
2021/08/02 02:03:31;;;;;;;0.80;0.73;;;;;;;;;;5072514;28;20274;-76
2021/08/02 02:06:40;;;;;;;1.75;1.15;;;;;;;;;;5072167;28;20378;-77
2021/08/02 02:09:43;;;;;;;2.58;0.57;;;;;;;;;;5072052;28;20053;-76
2021/08/02 02:12:47;;;;;;;1.20;0.32;;;;;;;;;;5071922;28;20037;-76
2021/08/02 02:15:52;;;;;;;0.75;0.35;;;;;;;;;;5072364;28;20391;-76
2021/08/02 02:18:56;;;;;;;6.95;1.23;;;;;;;;;;5070894;28;20040;-76
2021/08/02 02:22:00;;;;;;;1.65;0.90;;;;;;;;;;5072394;28;20049;-76
2021/08/02 02:25:05;;;;;;;3.33;0.98;;;;;;;;;;5073053;28;20385;-76
2021/08/02 02:28:10;;;;;;;2.38;0.47;;;;;;;;;;5072946;28;20477;-76
2021/08/02 02:31:13;;;;;;;2.05;0.95;;;;;;;;;;5072605;28;20040;-76
2021/08/02 02:34:17;;;;;;;0.35;0.35;;;;;;;;;;5072972;28;20049;-76
2021/08/02 02:37:24;;;;;;;0.50;0.30;;;;;;;;;;5072000;28;20053;-76
2021/08/02 02:40:27;;;;;;;0.75;0.60;;;;;;;;;;5071276;28;20040;-76
2021/08/02 02:43:31;;;;;;;3.75;0.47;;;;;;;;;;5072237;28;20079;-76
2021/08/02 02:46:34;;;;;;;0.40;0.35;;;;;;;;;;5071980;28;20496;-76
2021/08/02 02:49:38;;;;;;;2.25;0.85;;;;;;;;;;5072207;28;20484;-76
2021/08/02 02:52:41;;;;;;;2.28;0.75;;;;;;;;;;5072408;28;20036;-76
2021/08/02 02:55:45;;;;;;;1.88;0.63;;;;;;;;;;5072157;28;20037;-77
2021/08/02 02:58:48;;;;;;;1.48;0.60;;;;;;;;;;5072518;28;20032;-76
2021/08/02 03:01:52;;;;;;;1.65;0.65;;;;;;;;;;5072541;28;20036;-76
2021/08/02 03:04:57;;;;;;;5.88;1.35;;;;;;;;;;5072689;28;20048;-76
2021/08/02 03:08:01;;;;;;;4.13;0.65;;;;;;;;;;5072416;28;20048;-76
2021/08/02 03:11:04;;;;;;;1.15;0.75;;;;;;;;;;5071995;28;20040;-76
2021/08/02 03:14:08;;;;;;;0.20;0.20;;;;;;;;;;5072091;28;20079;-76
2021/08/02 03:17:11;;;;;;;0.95;0.30;;;;;;;;;;5072142;28;20044;-76
2021/08/02 03:20:15;;;;;;;0.60;0.60;;;;;;;;;;5072471;28;20049;-76
2021/08/02 03:23:37;;;;;;;1.17;0.50;;;;;;;;;;5072252;28;20040;-76
2021/08/02 03:26:40;;;;;;;0.93;0.40;;;;;;;;;;5070522;28;20044;-76
2021/08/02 03:29:45;;;;;;;0.55;0.20;;;;;;;;;;5071713;28;20044;-76
2021/08/02 03:32:49;;;;;;;6.60;0.60;;;;;;;;;;5071841;28;20040;-76
2021/08/02 03:35:53;;;;;;;1.40;0.68;;;;;;;;;;5072184;28;20040;-76
2021/08/02 03:38:57;;;;;;;0.75;0.55;;;;;;;;;;5071928;28;20036;-76
2021/08/02 03:42:01;;;;;;;0.50;0.20;;;;;;;;;;5071374;28;20036;-76
2021/08/02 03:45:05;;;;;;;0.68;0.68;;;;;;;;;;5071719;28;20036;-76
2021/08/02 03:48:09;;;;;;;0.68;0.45;;;;;;;;;;5071519;28;20048;-76
2021/08/02 03:51:12;;;;;;;0.70;0.47;;;;;;;;;;5071720;28;20048;-77
2021/08/02 03:54:16;;;;;;;0.95;0.32;;;;;;;;;;5071749;28;20033;-77
2021/08/02 03:57:19;;;;;;;0.60;0.20;;;;;;;;;;5071362;28;20041;-76
2021/08/02 04:00:23;;;;;;;0.68;0.57;;;;;;;;;;5070612;28;20045;-76
2021/08/02 04:03:27;;;;;;;0.50;0.30;;;;;;;;;;5071346;28;20370;-76
2021/08/02 04:06:30;;;;;;;0.40;0.40;;;;;;;;;;5071481;28;20373;-76
2021/08/02 04:09:33;;;;;;;1.23;0.70;;;;;;;;;;5071332;28;20052;-76
2021/08/02 04:12:37;;;;;;;1.48;0.77;;;;;;;;;;5070972;28;20049;-76
2021/08/02 04:15:40;;;;;;;0.50;0.35;;;;;;;;;;5070968;28;20669;-76
2021/08/02 04:18:43;;;;;;;1.95;0.68;;;;;;;;;;5070517;28;20028;-76
2021/08/02 04:21:47;;;;;;;0.90;0.38;;;;;;;;;;5071298;28;20033;-76
2021/08/02 04:24:51;;;;;;;5.43;0.75;;;;;;;;;;5071411;28;20045;-76
2021/08/02 04:27:55;;;;;;;1.42;0.40;;;;;;;;;;5071284;28;20488;-76
2021/08/02 04:30:58;;;;;;;1.02;0.70;;;;;;;;;;5071716;28;20370;-76
2021/08/02 04:34:02;;;;;;;0.25;0.25;;;;;;;;;;5071517;28;20044;-77
2021/08/02 04:37:05;;;;;;;1.00;0.20;;;;;;;;;;5070056;28;20036;-76
2021/08/02 04:40:08;;;;;;;0.82;0.45;;;;;;;;;;5069887;28;20037;-77
2021/08/02 04:43:11;;;;;;;1.27;0.38;;;;;;;;;;5071165;28;20469;-77
2021/08/02 04:46:15;;;;;;;1.52;0.40;;;;;;;;;;5070633;28;20041;-76
2021/08/02 04:49:18;;;;;;;2.05;0.73;;;;;;;;;;5070601;28;20048;-77
2021/08/02 04:52:21;;;;;;;0.60;0.32;;;;;;;;;;5067480;28;20036;-76
2021/08/02 04:55:25;;;;;;;1.17;0.20;;;;;;;;;;5069620;28;20028;-80
2021/08/02 04:58:28;;;;;;;0.30;0.22;;;;;;;;;;5072575;28;20048;-77
2021/08/02 05:01:31;;;;;;;1.65;0.40;;;;;;;;;;5069524;28;20044;-77
2021/08/02 05:04:34;;;;;;;6.85;0.98;;;;;;;;;;5067756;28;20044;-77
2021/08/02 05:07:38;;;;;;;5.28;0.60;;;;;;;;;;5070882;28;20036;-76
2021/08/02 05:10:40;;;;;;;0.57;0.32;;;;;;;;;;5070182;28;20044;-76
2021/08/02 05:13:43;;;;;;;1.23;0.40;;;;;;;;;;5073562;28;20040;-77
2021/08/02 05:16:46;;;;;;;1.77;0.20;;;;;;;;;;5069398;28;20480;-78
2021/08/02 05:19:49;;;;;;;0.45;0.28;;;;;;;;;;5073941;28;20044;-77
2021/08/02 05:22:53;;;;;;;0.50;0.47;;;;;;;;;;5072547;28;20040;-76
2021/08/02 05:25:56;;;;;;;4.20;0.70;;;;;;;;;;5072843;28;20056;-76
2021/08/02 05:28:59;;;;;;;0.50;0.20;;;;;;;;;;5073045;28;20480;-75
2021/08/02 05:32:02;;;;;;;0.80;0.50;;;;;;;;;;5071362;28;20061;-76
2021/08/02 05:35:06;;;;;;;1.10;0.20;;;;;;;;;;5074331;28;20044;-76
2021/08/02 05:38:09;;;;;;;1.50;0.43;;;;;;;;;;5074121;28;20036;-76
2021/08/02 05:41:12;;;;;;;1.08;0.30;;;;;;;;;;5073823;28;20040;-77
2021/08/02 05:44:15;;;;;;;1.45;0.32;;;;;;;;;;5073236;28;20040;-77
2021/08/02 05:47:18;;;;;;;1.27;0.55;;;;;;;;;;5073855;28;20036;-76
2021/08/02 05:50:22;;;;;;;0.10;0.10;;;;;;;;;;5073394;28;20048;-77
2021/08/02 05:53:25;;;;;;;1.65;0.63;;;;;;;;;;5073075;28;20374;-77
2021/08/02 05:56:28;;;;;;;6.22;0.82;;;;;;;;;;5072713;28;20036;-77
2021/08/02 05:59:31;;;;;;;0.28;0.28;;;;;;;;;;5073252;28;20044;-77
2021/08/02 06:02:34;;;;;;;0.60;0.40;;;;;;;;;;5073325;28;20045;-76
2021/08/02 06:05:38;;;;;;;0.65;0.43;;;;;;;;;;5073034;28;20044;-77
2021/08/02 06:08:41;;;;;;;0.80;0.32;;;;;;;;;;5073041;28;20048;-76
2021/08/02 06:11:44;;;;;;;2.50;0.63;;;;;;;;;;5071977;28;20040;-76
2021/08/02 06:14:47;;;;;;;2.47;0.57;;;;;;;;;;5072084;28;20033;-77
2021/08/02 06:17:50;;;;;;;0.68;0.50;;;;;;;;;;5070547;28;20032;-76
2021/08/02 06:20:53;;;;;;;1.67;0.20;;;;;;;;;;5071408;28;20040;-76
2021/08/02 06:23:57;;;;;;;0.55;0.10;;;;;;;;;;5073244;28;20048;-76
2021/08/02 06:27:00;;;;;;;3.13;0.47;;;;;;;;;;5073385;28;20048;-76
2021/08/02 06:30:04;;;;;;;1.38;0.50;;;;;;;;;;5093561;28;20052;-80
2021/08/02 06:33:07;;;;;;;4.32;0.28;;;;;;;;;;5093617;28;20401;-79
2021/08/02 06:36:11;;;;;;;4.13;0.32;;;;;;;;;;5073616;28;20049;-76
2021/08/02 06:39:14;;;;;;;4.55;0.30;;;;;;;;;;5072453;28;20048;-77
2021/08/02 06:42:18;;;;;;;9.13;0.47;;;;;;;;;;5072483;28;20044;-77
2021/08/02 06:45:21;;;;;;;6.32;1.17;;;;;;;;;;5072109;28;20468;-77
2021/08/02 06:48:24;;;;;;;3.42;0.32;;;;;;;;;;5071918;28;20044;-77
2021/08/02 06:51:27;;;;;;;0.68;0.20;;;;;;;;;;5072209;28;20480;-76
2021/08/02 06:54:30;;;;;;;1.55;0.85;;;;;;;;;;5072268;28;20378;-76
2021/08/02 06:57:35;;;;;;;0.40;0.40;;;;;;;;;;5071905;28;20033;-76
2021/08/02 07:00:39;;;;;;;3.20;0.63;;;;;;;;;;5072069;28;20045;-76
2021/08/02 07:03:42;;;;;;;0.13;0.13;;;;;;;;;;5072178;28;20370;-76
2021/08/02 07:06:45;;;;;;;1.48;0.20;;;;;;;;;;5072365;28;20032;-76
2021/08/02 07:09:49;;;;;;;1.65;0.20;;;;;;;;;;5072386;28;20044;-77
2021/08/02 07:12:52;;;;;;;0.43;0.32;;;;;;;;;;5071923;28;20045;-77
2021/08/02 07:15:55;;;;;;;0.43;0.20;;;;;;;;;;5071395;28;20037;-76
2021/08/02 07:18:58;;;;;;;4.82;0.47;;;;;;;;;;5071909;28;20036;-76
2021/08/02 07:22:01;;;;;;;3.75;1.05;;;;;;;;;;5071644;28;20032;-75
2021/08/02 07:25:05;;;;;;;0.20;0.20;;;;;;;;;;5072242;28;20036;-76
2021/08/02 07:28:08;;;;;;;13.65;0.63;;;;;;;;;;5071947;28;20048;-76
2021/08/02 07:31:11;;;;;;;0.13;0.13;;;;;;;;;;5072162;28;20044;-76
2021/08/02 07:34:14;;;;;;;0.40;0.38;;;;;;;;;;5072017;28;20053;-76
2021/08/02 07:37:18;;;;;;;2.22;0.43;;;;;;;;;;5072085;28;20045;-76
2021/08/02 07:40:21;;;;;;;0.98;0.30;;;;;;;;;;5071888;28;20040;-76
2021/08/02 07:43:24;;;;;;;2.35;0.47;;;;;;;;;;5071634;28;20044;-76
2021/08/02 07:46:28;;;;;;;1.08;0.35;;;;;;;;;;5071734;28;20049;-76
2021/08/02 07:49:31;;;;;;;1.17;0.20;;;;;;;;;;5071606;28;20048;-73
2021/08/02 07:52:34;;;;;;;0.10;0.10;;;;;;;;;;5071837;28;20032;-78
2021/08/02 07:55:38;;;;;;;1.27;0.20;;;;;;;;;;5070575;28;20036;-76
2021/08/02 07:58:41;;;;;;;1.25;0.50;;;;;;;;;;5070110;28;20032;-76
2021/08/02 08:01:44;;;;;;;2.33;0.40;;;;;;;;;;5071530;28;21003;-76
2021/08/02 08:04:47;;;;;;;0.32;0.20;;;;;;;;;;5072179;28;20040;-76
2021/08/02 08:07:51;;;;;;;2.58;0.50;;;;;;;;;;5071786;28;20480;-76
2021/08/02 08:10:54;;;;;;;0.85;0.10;;;;;;;;;;5072073;28;20041;-76
2021/08/02 08:13:57;;;;;;;0.85;0.20;;;;;;;;;;5071092;28;20037;-76
2021/08/02 08:17:00;;;;;;;1.58;0.47;;;;;;;;;;5071977;28;20040;-76
2021/08/02 08:20:04;;;;;;;1.95;0.30;;;;;;;;;;5071903;28;20044;-76
2021/08/02 08:23:08;;;;;;;0.90;0.20;;;;;;;;;;5071478;28;20045;-76
2021/08/02 08:26:11;;;;;;;0.30;0.10;;;;;;;;;;5071339;28;20477;-76
2021/08/02 08:29:14;;;;;;;3.03;0.68;;;;;;;;;;5075857;28;20052;-74
2021/08/02 08:32:17;;;;;;;1.83;0.38;;;;;;;;;;5075347;28;20044;-76
2021/08/02 08:35:21;;;;;;;4.40;0.28;;;;;;;;;;5075141;28;20040;-76
2021/08/02 08:38:25;;;;;;;2.28;0.90;;;;;;;;;;5074905;28;20044;-76
2021/08/02 08:41:28;;;;;;;0.77;0.25;;;;;;;;;;5075076;28;20048;-76
2021/08/02 08:44:31;;;;;;;5.28;0.40;;;;;;;;;;5074771;28;20037;-75
2021/08/02 08:47:35;;;;;;;0.20;0.10;;;;;;;;;;5074829;28;20040;-74
2021/08/02 08:50:38;;;;;;;1.02;0.20;;;;;;;;;;5075042;28;20040;-74
2021/08/02 08:53:42;;;;;;;1.35;0.25;;;;;;;;;;5074945;28;20045;-74
2021/08/02 08:56:46;;;;;;;0.38;0.25;;;;;;;;;;5074608;28;20036;-75
2021/08/02 08:59:50;;;;;;;0.55;0.22;;;;;;;;;;5074903;28;20040;-74
2021/08/02 09:02:54;;;;;;;3.75;0.73;;;;;;;;;;5075264;28;20067;-75
2021/08/02 09:06:05;;;;;;;0.50;0.10;;;;;;;;;;5074581;28;20481;-75
2021/08/02 09:09:08;;;;;;;1.67;0.32;;;;;;;;;;5074771;28;20048;-75
2021/08/02 09:12:19;;;;;;;0.30;0.30;;;;;;;;;;5074629;28;20370;-75
2021/08/02 09:15:54;;;;;;;1.58;0.38;;;;;;;;;;5073786;28;20638;-75
2021/08/02 09:18:57;;;;;;;2.35;0.63;;;;;;;;;;5074568;28;20461;-74
2021/08/02 09:22:00;;;;;;;1.50;0.30;;;;;;;;;;5074145;28;20040;-74
2021/08/02 09:25:04;;;;;;;0.75;0.10;;;;;;;;;;5074125;28;20040;-74
2021/08/02 09:28:11;;;;;;;1.10;0.10;;;;;;;;;;5074180;28;20033;-74
2021/08/02 09:31:15;;;;;;;1.50;0.20;;;;;;;;;;5074349;28;20049;-74
2021/08/02 09:34:22;;;;;;;0.88;0.10;;;;;;;;;;5074328;28;20056;-76
2021/08/02 09:37:25;;;;;;;2.28;0.20;;;;;;;;;;5073906;28;20037;-74
2021/08/02 09:40:34;;;;;;;1.13;0.28;;;;;;;;;;5073693;28;20048;-74
2021/08/02 09:43:40;;;;;;;1.48;0.20;;;;;;;;;;5073877;28;20048;-74
2021/08/02 09:47:03;;;;;;;5.85;0.60;;;;;;;;;;5073658;28;20036;-75
2021/08/02 09:50:06;;;;;;;6.78;0.88;;;;;;;;;;5073329;28;20052;-75
2021/08/02 09:53:17;;;;;;;2.53;0.70;;;;;;;;;;5073977;28;20044;-76
2021/08/02 09:56:20;;;;;;;1.23;0.40;;;;;;;;;;5073417;28;20044;-76
2021/08/02 09:59:23;;;;;;;1.67;0.55;;;;;;;;;;5073512;28;20472;-76
2021/08/02 10:02:27;;;;;;;1.00;0.38;;;;;;;;;;5073628;28;20036;-77
2021/08/02 10:05:30;;;;;;;1.05;0.30;;;;;;;;;;5073251;28;20040;-75
2021/08/02 10:08:34;;;;;;;4.90;1.20;;;;;;;;;;5073285;28;20036;-75
2021/08/02 10:11:37;;;;;;;6.50;1.42;;;;;;;;;;5073299;28;20040;-75
2021/08/02 10:14:41;;;;;;;11.90;2.47;;;;;;;;;;5073534;28;20045;-78
2021/08/02 10:17:46;;;;;;;8.32;1.83;;;;;;;;;;5073400;28;20043;-75
2021/08/02 10:20:49;;;;;;;16.15;2.65;;;;;;;;;;5073994;28;20370;-78
2021/08/02 10:24:03;;;;;;;4.43;1.77;;;;;;;;;;5073660;28;20036;-78
2021/08/02 10:27:06;;;;;;;5.63;2.22;;;;;;;;;;5073978;28;20040;-78
2021/08/02 10:30:20;;;;;;;10.48;2.42;;;;;;;;;;5074508;28;20057;-77
2021/08/02 10:33:30;;;;;;;7.95;2.33;;;;;;;;;;5072637;28;20048;-78
2021/08/02 10:36:34;;;;;;;6.03;3.25;;;;;;;;;;5071620;28;20381;-77
2021/08/02 10:39:37;;;;;;;7.63;2.33;;;;;;;;;;5072137;28;20040;-77
2021/08/02 10:42:47;;;;;;;9.15;2.00;;;;;;;;;;5071956;28;20036;-77
2021/08/02 10:45:51;;;;;;;3.72;2.03;;;;;;;;;;5072115;28;20040;-75
2021/08/02 10:49:06;;;;;;;7.97;3.72;;;;;;;;;;5073017;28;20049;-74
2021/08/02 10:52:09;;;;;;;6.30;2.30;;;;;;;;;;5072183;28;20037;-74
2021/08/02 10:55:16;;;;;;;5.28;2.00;;;;;;;;;;5071399;28;20041;-74
2021/08/02 10:58:29;;;;;;;10.68;2.35;;;;;;;;;;5072549;28;20044;-74
2021/08/02 11:01:36;;;;;;;4.68;2.75;;;;;;;;;;5072001;28;20043;-74
2021/08/02 11:04:39;;;;;;;15.93;2.15;;;;;;;;;;5072215;28;20464;-73
2021/08/02 11:07:43;;;;;;;14.13;3.13;;;;;;;;;;5071938;28;20041;-74
2021/08/02 11:10:46;;;;;;;6.82;1.98;;;;;;;;;;5072169;28;20052;-74
2021/08/02 11:13:50;;;;;;;3.83;1.35;;;;;;;;;;5071752;28;20044;-74
2021/08/02 11:16:53;;;;;;;2.92;1.27;;;;;;;;;;5072522;28;20036;-74
2021/08/02 11:20:01;;;;;;;5.97;1.20;;;;;;;;;;5072661;28;20036;-74
2021/08/02 11:23:03;;;;;;;3.15;0.73;;;;;;;;;;5072253;28;20044;-74
2021/08/02 11:26:08;;;;;;;5.35;1.52;;;;;;;;;;5072000;28;20477;-74
2021/08/02 11:29:18;;;;;;;3.67;1.23;;;;;;;;;;5072226;28;20048;-74
2021/08/02 11:32:22;;;;;;;2.50;1.27;;;;;;;;;;5071688;28;20496;-74
2021/08/02 11:35:36;;;;;;;5.43;1.27;;;;;;;;;;5072050;28;20040;-76
2021/08/02 11:38:39;;;;;;;2.90;0.65;;;;;;;;;;5071693;28;21180;-76
2021/08/02 11:41:46;;;;;;;2.63;0.88;;;;;;;;;;5071909;28;20041;-74
2021/08/02 11:44:53;;;;;;;5.78;1.23;;;;;;;;;;5072344;28;20044;-76
2021/08/02 11:47:58;;;;;;;3.05;0.50;;;;;;;;;;5072273;28;20036;-76
2021/08/02 11:51:01;;;;;;;4.20;0.82;;;;;;;;;;5072127;28;20049;-76
2021/08/02 11:54:04;;;;;;;3.35;0.60;;;;;;;;;;5071960;28;20045;-76
2021/08/02 11:57:18;;;;;;;5.85;0.85;;;;;;;;;;5071821;28;20045;-75
2021/08/02 12:00:21;;;;;;;0.77;0.60;;;;;;;;;;5070544;28;20045;-76
2021/08/02 12:03:24;;;;;;;0.65;0.35;;;;;;;;;;5075517;28;20045;-76
2021/08/02 12:06:27;;;;;;;0.93;0.32;;;;;;;;;;5075666;28;20041;-76
2021/08/02 12:09:32;;;;;;;2.63;0.45;;;;;;;;;;5075375;28;20052;-76
2021/08/02 12:12:37;;;;;;;2.47;0.40;;;;;;;;;;5075605;28;20040;-76
2021/08/02 12:15:57;;;;;;;1.20;0.73;;;;;;;;;;5075339;28;20040;-76
2021/08/02 12:19:01;;;;;;;4.65;0.80;;;;;;;;;;5076040;28;20045;-76
2021/08/02 12:22:05;;;;;;;4.22;0.28;;;;;;;;;;5075681;28;20044;-76
2021/08/02 12:25:08;;;;;;;1.67;0.30;;;;;;;;;;5075589;28;20041;-76
2021/08/02 12:28:11;;;;;;;1.05;0.43;;;;;;;;;;5075468;28;20041;-76
2021/08/02 12:31:21;;;;;;;4.28;0.55;;;;;;;;;;5075590;28;20484;-78
2021/08/02 12:34:24;;;;;;;1.98;0.82;;;;;;;;;;5075180;28;20048;-76
2021/08/02 12:37:28;;;;;;;7.30;1.75;;;;;;;;;;5075119;28;20048;-76
2021/08/02 12:40:31;;;;;;;5.18;1.05;;;;;;;;;;5075031;28;20044;-76
2021/08/02 12:43:34;;;;;;;3.67;1.13;;;;;;;;;;5075155;28;20040;-76
2021/08/02 12:46:37;;;;;;;2.05;0.85;;;;;;;;;;5074833;28;20048;-76
2021/08/02 12:49:41;;;;;;;2.70;0.73;;;;;;;;;;5074886;28;20052;-76
2021/08/02 12:52:44;;;;;;;4.47;0.68;;;;;;;;;;5074613;28;20040;-75
2021/08/02 12:55:47;;;;;;;4.35;0.82;;;;;;;;;;5074945;28;20056;-77
2021/08/02 12:58:51;;;;;;;1.35;1.13;;;;;;;;;;5073937;28;20045;-77
2021/08/02 13:01:54;;;;;;;6.05;2.03;;;;;;;;;;5074461;28;20032;-76
2021/08/02 13:04:57;;;;;;;2.47;0.70;;;;;;;;;;5074736;28;20382;-75
2021/08/02 13:08:00;;;;;;;3.17;1.50;;;;;;;;;;5074359;28;20045;-75
2021/08/02 13:11:04;;;;;;;3.60;0.95;;;;;;;;;;5074890;28;20052;-76
2021/08/02 13:14:07;;;;;;;2.88;0.85;;;;;;;;;;5073626;28;20036;-76
2021/08/02 13:17:10;;;;;;;7.97;1.77;;;;;;;;;;5074664;28;20370;-76
2021/08/02 13:20:13;;;;;;;2.55;1.17;;;;;;;;;;5074713;28;20374;-77
2021/08/02 13:29:50;;;;;;;2.67;0.90;;;;;;;;;;5073899;28;20044;-76
2021/08/02 13:32:54;;;;;;;1.52;0.47;;;;;;;;;;5074187;28;20048;-75
2021/08/02 13:35:57;;;;;;;6.22;2.15;;;;;;;;;;5074289;28;20044;-75
2021/08/02 13:39:00;;;;;;;4.00;1.13;;;;;;;;;;5074152;28;20049;-76
2021/08/02 13:42:04;;;;;;;3.50;1.50;;;;;;;;;;5074281;28;20036;-76
2021/08/02 13:45:08;;;;;;;1.95;1.05;;;;;;;;;;5074138;28;20037;-76
2021/08/02 13:48:12;;;;;;;1.80;1.08;;;;;;;;;;5074222;28;20041;-76
2021/08/02 13:51:15;;;;;;;6.72;1.58;;;;;;;;;;5074007;28;20389;-76
2021/08/02 13:54:18;;;;;;;3.20;0.70;;;;;;;;;;5073699;28;20041;-76
2021/08/02 13:57:21;;;;;;;6.07;1.15;;;;;;;;;;5073233;28;20040;-76
2021/08/02 14:00:25;;;;;;;2.92;1.15;;;;;;;;;;5073587;28;20037;-74
2021/08/02 14:03:28;;;;;;;1.73;0.80;;;;;;;;;;5073294;28;20044;-75
2021/08/02 14:06:32;;;;;;;3.15;1.20;;;;;;;;;;5073514;28;20032;-74
2021/08/02 14:09:35;;;;;;;2.05;0.75;;;;;;;;;;5073199;28;20044;-75
2021/08/02 14:12:39;;;;;;;2.72;1.20;;;;;;;;;;5073268;28;20041;-76
2021/08/02 14:15:47;;;;;;;1.88;0.63;;;;;;;;;;5073212;28;20029;-75
2021/08/02 14:19:00;;;;;;;3.33;0.82;;;;;;;;;;5073633;28;20037;-75
2021/08/02 14:22:05;;;;;;;1.65;0.60;;;;;;;;;;5073548;28;20041;-75
2021/08/02 14:25:08;;;;;;;3.05;0.43;;;;;;;;;;5073065;28;20040;-75
2021/08/02 14:28:11;;;;;;;1.65;0.60;;;;;;;;;;5073128;28;20044;-75
2021/08/02 14:31:14;;;;;;;5.15;0.73;;;;;;;;;;5073186;28;20052;-75
2021/08/02 14:34:18;;;;;;;0.88;0.50;;;;;;;;;;5073366;28;20048;-75
2021/08/02 14:37:21;;;;;;;10.05;1.02;;;;;;;;;;5073008;28;20036;-75
2021/08/02 14:40:26;;;;;;;1.48;0.80;;;;;;;;;;5072649;28;20041;-75
2021/08/02 14:43:29;;;;;;;1.35;0.73;;;;;;;;;;5072597;28;20044;-76
2021/08/02 14:46:33;;;;;;;1.27;0.85;;;;;;;;;;5072704;28;20044;-76
2021/08/02 14:49:47;;;;;;;2.97;0.52;;;;;;;;;;5072423;28;20381;-75
2021/08/02 14:52:51;;;;;;;1.70;0.60;;;;;;;;;;5072817;28;20044;-76
2021/08/02 14:55:55;;;;;;;3.15;0.45;;;;;;;;;;5072418;28;20048;-76
2021/08/02 14:58:58;;;;;;;2.40;0.50;;;;;;;;;;5072942;28;20036;-76
2021/08/02 15:02:02;;;;;;;0.77;0.60;;;;;;;;;;5071925;28;20488;-76
2021/08/02 15:05:07;;;;;;;2.03;0.80;;;;;;;;;;5070171;28;20036;-76
2021/08/02 15:08:10;;;;;;;1.13;0.50;;;;;;;;;;5068721;28;20040;-76
2021/08/02 15:11:14;;;;;;;2.08;0.63;;;;;;;;;;5072343;28;20041;-76
2021/08/02 15:14:17;;;;;;;1.45;0.55;;;;;;;;;;5072312;28;20040;-76
2021/08/02 15:17:21;;;;;;;6.28;0.95;;;;;;;;;;5072249;28;20037;-76
2021/08/02 15:20:25;;;;;;;3.38;0.73;;;;;;;;;;5071421;28;20044;-76
2021/08/02 15:23:32;;;;;;;2.47;0.50;;;;;;;;;;5071638;28;20493;-76
2021/08/02 15:26:36;;;;;;;3.17;0.38;;;;;;;;;;5071518;28;20374;-75
2021/08/02 15:29:41;;;;;;;0.90;0.28;;;;;;;;;;5071391;28;20048;-75
2021/08/02 15:32:46;;;;;;;4.25;0.63;;;;;;;;;;5073246;28;20045;-76
2021/08/02 15:35:50;;;;;;;4.70;0.95;;;;;;;;;;5077712;28;20058;-75
2021/08/02 15:38:54;;;;;;;2.00;0.52;;;;;;;;;;5075494;28;20040;-74
2021/08/02 15:41:57;;;;;;;2.55;0.20;;;;;;;;;;5066138;28;20037;-76
2021/08/02 15:45:08;;;;;;;2.17;0.50;;;;;;;;;;5068420;28;20044;-73
2021/08/02 15:48:11;;;;;;;;;;;;;;;;;;5060808;28;20045;-73
2021/08/02 15:51:23;;;;;;;2.70;0.13;;;;;;;;;;5055231;28;19923;-75
2021/08/02 15:54:27;;;;;;;1.02;0.20;;;;;;;;;;5054617;28;20045;-74
2021/08/02 15:57:34;;;;;;;1.75;0.30;;;;;;;;;;5050963;28;20049;-74
2021/08/02 16:00:38;;;;;;;1.52;0.35;;;;;;;;;;5065431;28;20469;-72
2021/08/02 16:03:41;;;;;;;1.17;0.35;;;;;;;;;;5091571;28;20045;-73
2021/08/02 16:06:49;;;;;;;2.20;0.30;;;;;;;;;;5090525;28;20025;-73
2021/08/02 16:09:59;;;;;;;0.55;0.20;;;;;;;;;;5071607;28;20386;-73
2021/08/02 16:13:03;;;;;;;4.55;0.63;;;;;;;;;;5071469;28;20032;-73
2021/08/02 16:16:06;;;;;;;2.03;0.32;;;;;;;;;;5071386;28;20041;-73
2021/08/02 16:19:09;;;;;;;1.25;0.40;;;;;;;;;;5071731;28;20048;-73
2021/08/02 16:22:12;;;;;;;0.85;0.55;;;;;;;;;;5071122;28;20048;-73
2021/08/02 16:25:16;;;;;;;4.10;0.30;;;;;;;;;;5071064;28;20041;-72
2021/08/02 16:28:19;;;;;;;0.50;0.10;;;;;;;;;;5070928;28;20040;-73
2021/08/02 16:31:23;;;;;;;0.90;0.15;;;;;;;;;;5070184;28;20048;-73
2021/08/02 16:34:26;;;;;;;0.30;0.10;;;;;;;;;;5070509;28;20036;-73
2021/08/02 16:37:29;;;;;;;1.20;0.28;;;;;;;;;;5070694;28;20048;-73
2021/08/02 16:40:32;;;;;;;6.60;0.45;;;;;;;;;;5070811;28;20040;-74
2021/08/02 16:43:35;;;;;;;0.32;0.13;;;;;;;;;;5069415;28;20036;-74
2021/08/02 16:46:38;;;;;;;1.90;0.30;;;;;;;;;;5070071;28;20037;-74
2021/08/02 16:49:42;;;;;;;9.52;0.85;;;;;;;;;;5074395;28;20410;-74
2021/08/02 16:52:45;;;;;;;0.98;0.13;;;;;;;;;;5074253;28;20036;-74
2021/08/02 16:55:48;;;;;;;1.40;0.28;;;;;;;;;;5074325;28;20036;-74
2021/08/02 16:58:51;;;;;;;0.80;0.30;;;;;;;;;;5074304;28;20044;-75
2021/08/02 17:01:55;;;;;;;1.17;0.32;;;;;;;;;;5072150;28;20378;-74
2021/08/02 17:04:58;;;;;;;0.50;0.17;;;;;;;;;;5073247;28;20036;-74
2021/08/02 17:08:01;;;;;;;13.57;0.73;;;;;;;;;;5074673;28;20036;-75
2021/08/02 17:11:05;;;;;;;1.17;0.30;;;;;;;;;;5073469;28;20060;-73
2021/08/02 17:14:08;;;;;;;3.22;0.77;;;;;;;;;;5065144;28;20033;-73
2021/08/02 17:17:11;;;;;;;1.38;0.40;;;;;;;;;;5074436;28;20048;-73
2021/08/02 17:20:15;;;;;;;0.57;0.15;;;;;;;;;;5073183;28;20040;-74
2021/08/02 17:23:18;;;;;;;7.25;0.35;;;;;;;;;;5074261;28;20480;-74
2021/08/02 17:26:22;;;;;;;1.50;0.40;;;;;;;;;;5072634;28;20457;-73
2021/08/02 17:29:26;;;;;;;5.00;0.85;;;;;;;;;;5073403;28;20040;-73
2021/08/02 17:32:30;;;;;;;1.00;0.30;;;;;;;;;;5069947;28;20049;-74
2021/08/02 17:35:33;;;;;;;5.32;0.65;;;;;;;;;;5070906;28;20032;-75
2021/08/02 17:38:37;;;;;;;3.00;0.50;;;;;;;;;;5073216;28;20045;-76
2021/08/02 17:42:10;;;;;;;0.22;0.15;;;;;;;;;;5071851;28;20040;-76
2021/08/02 17:45:15;;;;;;;0.55;0.20;;;;;;;;;;5072480;28;20366;-74
2021/08/02 17:48:18;;;;;;;1.65;0.47;;;;;;;;;;5073976;28;20044;-73
2021/08/02 17:51:22;;;;;;;4.55;0.63;;;;;;;;;;5073492;28;20056;-72
2021/08/02 17:54:25;;;;;;;2.08;0.45;;;;;;;;;;5072688;28;20049;-73
2021/08/02 17:57:28;;;;;;;1.35;0.52;;;;;;;;;;5073381;28;20052;-76
2021/08/02 18:00:31;;;;;;;1.35;0.28;;;;;;;;;;5071780;28;20049;-74
2021/08/02 18:03:34;;;;;;;0.90;0.50;;;;;;;;;;5072272;28;20040;-73
2021/08/02 18:06:39;;;;;;;0.70;0.20;;;;;;;;;;5053698;28;20037;-74
2021/08/02 18:09:42;;;;;;;0.90;0.32;;;;;;;;;;5071754;28;20052;-73
2021/08/02 18:12:46;;;;;;;1.73;0.47;;;;;;;;;;5073447;28;20045;-75
2021/08/02 18:15:49;;;;;;;0.32;0.17;;;;;;;;;;5073288;28;20040;-76
2021/08/02 18:18:52;;;;;;;1.27;0.52;;;;;;;;;;5073664;28;20040;-76
2021/08/02 18:21:56;;;;;;;0.13;0.10;;;;;;;;;;5072403;28;20033;-75
2021/08/02 18:24:59;;;;;;;0.82;0.15;;;;;;;;;;5072900;28;20032;-75
2021/08/02 18:28:02;;;;;;;0.52;0.28;;;;;;;;;;5073366;28;20041;-75
2021/08/02 18:31:05;;;;;;;1.05;0.30;;;;;;;;;;5073346;28;20049;-78
2021/08/02 18:34:09;;;;;;;0.75;0.10;;;;;;;;;;5073847;28;20044;-78